createdAt,value
2018-12-31T00:03:44.086Z,11.01
2018-12-31T00:08:53.266Z,14.38
2018-12-31T00:14:02.914Z,20.66
2018-12-31T00:19:11.128Z,14.03
2018-12-31T00:24:20.332Z,11.46
2018-12-31T00:29:29.522Z,12.02
2018-12-31T00:34:38.755Z,14.94
2018-12-31T00:39:47.889Z,15.78
2018-12-31T00:44:57.095Z,17.02
2018-12-31T00:50:06.339Z,14.62
2018-12-31T00:55:15.609Z,15.63
2018-12-31T01:00:24.721Z,19.59
2018-12-31T01:05:33.920Z,16.90
2018-12-31T01:10:43.071Z,19.84
2018-12-31T01:15:52.278Z,18.41
2018-12-31T01:21:01.445Z,19.66
2018-12-31T01:26:10.681Z,17.99
2018-12-31T01:31:19.836Z,13.42
2018-12-31T01:36:29.086Z,16.87
2018-12-31T01:41:38.216Z,17.70
2018-12-31T01:46:47.511Z,18.81
2018-12-31T01:51:56.646Z,18.80
2018-12-31T01:57:05.877Z,19.81
2018-12-31T02:02:15.026Z,14.25
2018-12-31T02:07:24.326Z,17.77
2018-12-31T02:12:33.496Z,15.55
2018-12-31T02:17:42.716Z,15.27
2018-12-31T02:22:51.925Z,11.72
2018-12-31T02:28:01.243Z,16.71
2018-12-31T02:33:10.412Z,20.11
2018-12-31T02:38:19.619Z,18.78
2018-12-31T02:43:28.767Z,17.80
2018-12-31T02:48:37.918Z,15.49
2018-12-31T02:53:47.684Z,18.28
2018-12-31T02:58:55.808Z,20.79
2018-12-31T03:04:04.954Z,19.60
2018-12-31T03:09:14.233Z,16.41
2018-12-31T03:14:23.398Z,13.62
2018-12-31T03:19:32.625Z,13.55
2018-12-31T03:24:41.740Z,15.17
2018-12-31T03:29:51.068Z,18.41
2018-12-31T03:35:00.220Z,16.44
2018-12-31T03:40:09.577Z,20.50
2018-12-31T03:45:18.707Z,22.91
2018-12-31T03:50:27.942Z,16.29
2018-12-31T03:55:37.081Z,12.16
2018-12-31T04:00:46.685Z,14.53
2018-12-31T04:05:55.813Z,15.18
2018-12-31T04:11:06.910Z,19.41
2018-12-31T04:16:06.005Z,15.37
2018-12-31T04:21:15.226Z,26.39
2018-12-31T04:26:24.374Z,16.51
2018-12-31T04:31:33.815Z,19.24
2018-12-31T04:36:42.941Z,20.13
2018-12-31T04:41:52.110Z,18.17
2018-12-31T04:47:01.229Z,20.56
2018-12-31T04:52:10.494Z,23.90
2018-12-31T04:57:18.131Z,18.47
2018-12-31T05:02:27.366Z,14.80
2018-12-31T05:07:36.508Z,17.11
2018-12-31T05:12:45.729Z,21.26
2018-12-31T05:17:54.858Z,21.54
2018-12-31T05:23:05.344Z,19.43
2018-12-31T05:28:12.701Z,15.45
2018-12-31T05:33:21.965Z,19.12
2018-12-31T05:38:31.089Z,21.64
2018-12-31T05:43:40.351Z,19.39
2018-12-31T05:48:49.471Z,21.46
2018-12-31T05:53:58.753Z,22.51
2018-12-31T05:59:06.431Z,14.29
2018-12-31T06:04:16.213Z,12.41
2018-12-31T06:09:25.360Z,19.45
2018-12-31T06:14:34.625Z,19.13
2018-12-31T06:19:43.761Z,18.95
2018-12-31T06:24:53.025Z,23.58
2018-12-31T06:30:02.516Z,16.48
2018-12-31T06:35:10.999Z,19.16
2018-12-31T06:40:20.137Z,20.96
2018-12-31T06:45:29.390Z,18.69
2018-12-31T06:50:38.580Z,26.55
2018-12-31T06:55:47.827Z,18.21
2018-12-31T07:00:56.961Z,19.21
2018-12-31T07:06:06.169Z,20.47
2018-12-31T07:11:15.354Z,19.63
2018-12-31T07:16:24.589Z,19.29
2018-12-31T07:21:33.714Z,22.55
2018-12-31T07:26:42.901Z,22.91
2018-12-31T07:31:52.070Z,21.45
2018-12-31T07:37:01.257Z,17.03
2018-12-31T07:42:10.404Z,18.22
2018-12-31T07:47:19.632Z,23.45
2018-12-31T07:52:28.734Z,21.53
2018-12-31T07:57:40.279Z,27.04
2018-12-31T08:02:39.367Z,24.77
2018-12-31T08:07:48.700Z,21.46
2018-12-31T08:12:57.927Z,19.33
2018-12-31T08:18:07.418Z,17.38
2018-12-31T08:23:16.544Z,22.67
2018-12-31T08:28:25.821Z,23.74
2018-12-31T08:33:34.934Z,22.20
2018-12-31T08:38:45.234Z,24.48
2018-12-31T08:43:44.365Z,21.38
2018-12-31T08:48:53.668Z,12.39
2018-12-31T08:54:02.997Z,20.36
2018-12-31T08:59:12.623Z,13.34
2018-12-31T09:04:21.800Z,17.06
2018-12-31T09:09:30.968Z,20.03
2018-12-31T09:14:40.941Z,22.99
2018-12-31T09:19:50.262Z,14.96
2018-12-31T09:24:59.473Z,21.89
2018-12-31T09:30:08.687Z,19.66
2018-12-31T09:35:17.969Z,16.91
2018-12-31T09:40:25.713Z,22.04
2018-12-31T09:45:33.334Z,21.20
2018-12-31T09:50:42.535Z,17.41
2018-12-31T09:55:51.686Z,22.56
2018-12-31T10:01:00.923Z,20.09
2018-12-31T10:06:10.060Z,13.99
2018-12-31T10:11:19.365Z,17.82
2018-12-31T10:16:30.453Z,14.59
2018-12-31T10:21:40.963Z,19.24
2018-12-31T10:26:45.989Z,19.78
2018-12-31T10:31:55.141Z,20.29
2018-12-31T10:37:04.337Z,16.75
2018-12-31T10:42:13.515Z,17.20
2018-12-31T10:47:22.910Z,16.36
2018-12-31T10:52:32.013Z,15.90
2018-12-31T10:57:41.235Z,18.89
2018-12-31T11:02:50.530Z,14.86
2018-12-31T11:08:01.912Z,19.03
2018-12-31T11:13:03.299Z,12.92
2018-12-31T11:18:02.481Z,14.12
2018-12-31T11:23:10.175Z,16.30
2018-12-31T11:28:19.427Z,16.85
2018-12-31T11:33:28.676Z,13.19
2018-12-31T11:38:37.830Z,20.21
2018-12-31T11:43:47.090Z,15.78
2018-12-31T11:48:56.361Z,18.53
2018-12-31T11:54:05.634Z,16.87
2018-12-31T11:59:14.925Z,23.59
2018-12-31T12:04:24.083Z,21.03
2018-12-31T12:09:33.545Z,18.53
2018-12-31T12:14:42.681Z,18.11
2018-12-31T12:19:51.854Z,12.96
2018-12-31T12:25:01.029Z,23.33
2018-12-31T12:30:10.266Z,18.50
2018-12-31T12:35:19.524Z,14.94
2018-12-31T12:40:34.872Z,17.51
2018-12-31T12:45:34.039Z,18.54
2018-12-31T12:50:43.263Z,20.63
2018-12-31T12:55:52.400Z,20.45
2018-12-31T13:01:01.652Z,13.67
2018-12-31T13:06:10.818Z,16.59
2018-12-31T13:11:20.205Z,20.83
2018-12-31T13:16:29.348Z,23.32
2018-12-31T13:21:38.578Z,13.58
2018-12-31T13:26:47.666Z,12.79
2018-12-31T13:31:57.103Z,16.75
2018-12-31T13:37:06.686Z,18.41
2018-12-31T13:42:16.075Z,17.58
2018-12-31T13:47:25.428Z,20.39
2018-12-31T13:52:34.655Z,17.08
2018-12-31T13:57:43.350Z,12.10
2018-12-31T14:02:52.788Z,14.28
2018-12-31T14:08:02.361Z,17.62
2018-12-31T14:13:11.682Z,16.16
2018-12-31T14:18:20.790Z,15.49
2018-12-31T14:23:30.074Z,15.20
2018-12-31T14:28:39.348Z,14.63
2018-12-31T14:33:48.729Z,18.77
2018-12-31T14:38:58.249Z,20.38
2018-12-31T14:44:06.068Z,18.29
2018-12-31T14:49:15.271Z,15.40
2018-12-31T14:54:24.499Z,15.40
2018-12-31T14:59:33.737Z,14.66
2018-12-31T15:04:43.570Z,16.93
2018-12-31T15:09:52.696Z,14.12
2018-12-31T15:15:05.271Z,14.47
2018-12-31T15:20:02.919Z,9.73
2018-12-31T15:25:12.342Z,14.42
2018-12-31T15:30:22.687Z,12.14
2018-12-31T15:35:22.671Z,10.98
2018-12-31T15:40:29.409Z,11.26
2018-12-31T15:50:47.296Z,9.41
2018-12-31T15:55:56.398Z,8.60
2018-12-31T16:01:06.257Z,9.43
2018-12-31T16:06:15.542Z,9.88
2018-12-31T16:11:25.757Z,9.78
2018-12-31T16:16:24.904Z,10.08
2018-12-31T16:21:34.857Z,9.40
2018-12-31T16:26:52.415Z,13.77
2018-12-31T16:31:51.598Z,10.89
2018-12-31T16:36:59.265Z,12.55
2018-12-31T16:42:08.486Z,18.78
2018-12-31T16:47:30.542Z,13.73
2018-12-31T16:52:19.412Z,26.42
2018-12-31T16:57:30.021Z,26.41
2018-12-31T17:02:29.509Z,14.23
2018-12-31T17:07:38.758Z,16.32
2018-12-31T17:12:48.483Z,15.51
2018-12-31T17:17:58.378Z,18.95
2018-12-31T17:23:07.685Z,12.36
2018-12-31T17:28:17.921Z,11.67
2018-12-31T17:33:24.627Z,14.01
2018-12-31T17:38:33.738Z,11.62
2018-12-31T17:43:43.827Z,12.76
2018-12-31T17:48:42.874Z,12.63
2018-12-31T17:53:52.067Z,15.34
2018-12-31T17:58:59.780Z,13.21
2018-12-31T18:04:09.089Z,19.47
2018-12-31T18:09:18.251Z,27.61
2018-12-31T18:14:27.296Z,40.23
2018-12-31T18:19:36.601Z,46.16
2018-12-31T18:24:45.801Z,44.91
2018-12-31T18:29:54.923Z,47.83
2018-12-31T18:35:04.167Z,54.83
2018-12-31T18:40:13.327Z,52.83
2018-12-31T18:45:22.797Z,53.22
2018-12-31T18:50:32.156Z,49.73
2018-12-31T18:55:41.374Z,45.65
2018-12-31T19:00:50.697Z,41.73
2018-12-31T19:05:59.849Z,47.55
2018-12-31T19:11:09.037Z,44.92
2018-12-31T19:16:20.172Z,42.68
2018-12-31T19:21:19.441Z,44.20
2018-12-31T19:26:28.673Z,47.91
2018-12-31T19:31:37.765Z,44.65
2018-12-31T19:36:47.016Z,45.89
2018-12-31T19:41:56.114Z,44.31
2018-12-31T19:47:05.348Z,36.34
2018-12-31T19:52:14.534Z,42.72
2018-12-31T19:57:23.878Z,37.60
2018-12-31T20:02:33.022Z,28.39
2018-12-31T20:07:42.415Z,17.42
2018-12-31T20:12:50.110Z,11.96
2018-12-31T20:17:59.299Z,13.05
2018-12-31T20:23:08.429Z,16.95
2018-12-31T20:28:17.601Z,13.28
2018-12-31T20:33:26.743Z,18.43
2018-12-31T20:38:35.921Z,20.34
2018-12-31T20:43:45.170Z,21.71
2018-12-31T20:48:54.426Z,16.89
2018-12-31T20:54:02.105Z,18.82
2018-12-31T20:59:11.344Z,19.81
2018-12-31T21:04:20.481Z,19.51
2018-12-31T21:09:29.634Z,10.83
2018-12-31T21:14:38.792Z,11.90
2018-12-31T21:19:48.289Z,9.94
2018-12-31T21:24:57.404Z,9.25
2018-12-31T21:30:06.622Z,6.78
2018-12-31T21:35:15.761Z,14.45
2018-12-31T21:40:25.146Z,13.98
2018-12-31T21:45:34.257Z,5.76
2018-12-31T21:50:43.380Z,5.18
2018-12-31T21:55:52.682Z,5.84
2018-12-31T22:01:01.837Z,8.05
2018-12-31T22:06:11.075Z,4.78
2018-12-31T22:11:20.308Z,3.22
2018-12-31T22:16:29.492Z,4.11
2018-12-31T22:21:41.885Z,5.22
2018-12-31T22:26:40.943Z,4.33
2018-12-31T22:31:50.162Z,3.45
2018-12-31T22:36:59.259Z,3.70
2018-12-31T22:42:08.634Z,6.33
2018-12-31T22:47:17.796Z,5.10
2018-12-31T22:52:27.157Z,6.70
2018-12-31T22:57:38.641Z,5.76
2018-12-31T23:02:36.303Z,5.79
2018-12-31T23:07:45.434Z,9.15
2018-12-31T23:17:59.308Z,8.44
2018-12-31T23:23:08.546Z,9.98
2018-12-31T23:28:17.688Z,10.14
2018-12-31T23:33:26.941Z,10.20
2018-12-31T23:38:36.129Z,13.19
2018-12-31T23:43:45.357Z,14.48
2018-12-31T23:48:54.545Z,13.88
2018-12-31T23:54:03.805Z,11.98
2018-12-31T23:59:12.973Z,13.33
